createdAt,value
2022-08-23T00:02:23.937Z,98564.64
2022-08-23T00:07:28.251Z,98569.06
2022-08-23T00:12:33.218Z,98569.61
2022-08-23T00:17:36.438Z,98579.27
2022-08-23T00:22:40.563Z,98581.30
2022-08-23T00:27:44.907Z,98580.28
2022-08-23T00:32:47.923Z,98576.23
2022-08-23T00:38:32.015Z,98582.08
2022-08-23T00:43:36.476Z,98597.13
2022-08-23T00:48:40.034Z,98600.56
2022-08-23T00:53:48.703Z,98600.03
2022-08-23T00:58:52.148Z,98601.74
2022-08-23T01:04:04.737Z,98608.84
2022-08-23T01:09:13.843Z,98610.20
2022-08-23T01:14:26.497Z,98604.52
2022-08-23T01:19:44.178Z,98603.32
2022-08-23T01:25:08.251Z,98598.27
2022-08-23T01:30:23.447Z,98595.38
2022-08-23T01:35:40.519Z,98578.40
2022-08-23T01:40:45.074Z,98582.55
2022-08-23T01:45:49.627Z,98586.46
2022-08-23T01:50:53.297Z,98587.27
2022-08-23T01:55:57.074Z,98592.41
2022-08-23T02:01:02.075Z,98597.55
2022-08-23T02:06:06.261Z,98598.02
2022-08-23T02:11:11.843Z,98597.78
2022-08-23T02:16:24.846Z,98592.10
2022-08-23T02:21:31.425Z,98590.52
2022-08-23T02:26:39.486Z,98594.04
2022-08-23T02:31:44.444Z,98596.55
2022-08-23T02:36:47.935Z,98603.29
2022-08-23T02:41:52.036Z,98598.48
2022-08-23T02:46:55.985Z,98596.48
2022-08-23T02:51:59.015Z,98595.56
2022-08-23T02:57:02.502Z,98591.86
2022-08-23T03:02:05.503Z,98596.94
2022-08-23T03:07:12.409Z,98606.45
2022-08-23T03:12:15.662Z,98607.45
2022-08-23T03:17:22.982Z,98606.30
2022-08-23T03:22:26.605Z,98611.14
2022-08-23T03:27:31.597Z,98624.95
2022-08-23T03:32:42.416Z,98631.70
2022-08-23T03:37:55.352Z,98630.45
2022-08-23T03:42:58.697Z,98625.13
2022-08-23T03:48:02.159Z,98623.98
2022-08-23T03:53:08.404Z,98631.25
2022-08-23T03:58:16.473Z,98636.71
2022-08-23T04:03:19.844Z,98631.34
2022-08-23T04:08:37.420Z,98631.52
2022-08-23T04:13:41.244Z,98638.66
2022-08-23T04:18:45.240Z,98641.67
2022-08-23T04:23:48.560Z,98647.83
2022-08-23T04:28:51.869Z,98651.41
2022-08-23T04:33:56.631Z,98655.23
2022-08-23T04:39:00.177Z,98655.77
2022-08-23T04:44:05.735Z,98658.67
2022-08-23T04:49:09.643Z,98658.92
2022-08-23T04:54:12.759Z,98664.82
2022-08-23T04:59:33.453Z,98672.66
2022-08-23T05:04:36.618Z,98677.07
2022-08-23T05:09:39.760Z,98677.40
2022-08-23T05:14:47.850Z,98676.52
2022-08-23T05:19:52.965Z,98680.45
2022-08-23T05:24:56.059Z,98684.98
2022-08-23T05:29:59.061Z,98694.02
2022-08-23T05:35:02.413Z,98699.56
2022-08-23T05:40:07.173Z,98704.50
2022-08-23T05:45:17.205Z,98705.81
2022-08-23T05:50:24.275Z,98712.15
2022-08-23T05:55:34.687Z,98716.79
2022-08-23T06:00:55.643Z,98716.55
2022-08-23T06:05:59.873Z,98719.30
2022-08-23T06:11:05.981Z,98721.55
2022-08-23T06:16:19.103Z,98718.17
2022-08-23T06:21:22.505Z,98724.98
2022-08-23T06:26:31.869Z,98720.73
2022-08-23T06:31:47.276Z,98727.59
2022-08-23T06:36:56.911Z,98737.61
2022-08-23T06:42:38.022Z,98743.63
2022-08-23T06:47:44.396Z,98748.44
2022-08-23T06:52:49.026Z,98744.16
2022-08-23T06:58:24.624Z,98748.34
2022-08-23T07:03:46.486Z,98747.49
2022-08-23T07:09:08.494Z,98750.23
2022-08-23T07:14:15.198Z,98745.76
2022-08-23T07:19:20.611Z,98760.44
2022-08-23T07:24:27.237Z,98761.38
2022-08-23T07:29:36.260Z,98766.68
2022-08-23T07:34:39.642Z,98777.55
2022-08-23T07:39:43.370Z,98783.56
2022-08-23T07:44:46.301Z,98781.45
2022-08-23T07:49:50.989Z,98779.44
2022-08-23T07:54:56.242Z,98784.10
2022-08-23T08:00:35.874Z,98784.89
2022-08-23T08:05:49.386Z,98782.48
2022-08-23T08:10:55.070Z,98793.08
2022-08-23T08:15:58.712Z,98793.60
2022-08-23T08:21:06.699Z,98794.29
2022-08-23T08:26:37.077Z,98801.72
2022-08-23T08:31:42.376Z,98807.49
2022-08-23T08:36:53.823Z,98814.51
2022-08-23T08:42:12.366Z,98820.98
2022-08-23T08:47:36.372Z,98818.55
2022-08-23T08:52:44.559Z,98822.75
2022-08-23T08:57:55.286Z,98818.59
2022-08-23T09:03:00.898Z,98815.73
2022-08-23T09:08:26.123Z,98816.67
2022-08-23T09:13:48.570Z,98814.11
2022-08-23T09:18:54.629Z,98815.45
2022-08-23T09:24:00.763Z,98814.73
2022-08-23T09:29:28.889Z,98808.59
2022-08-23T09:34:37.721Z,98814.09
2022-08-23T09:39:50.801Z,98814.58
2022-08-23T09:44:57.892Z,98816.77
2022-08-23T09:50:47.909Z,98812.31
2022-08-23T09:55:54.756Z,98811.74
2022-08-23T10:01:26.695Z,98819.52
2022-08-23T10:06:40.803Z,98822.73
2022-08-23T10:11:46.416Z,98822.05
2022-08-23T10:17:05.138Z,98818.83
2022-08-23T10:22:42.473Z,98820.81
2022-08-23T10:28:24.675Z,98816.67
2022-08-23T10:33:57.307Z,98821.65
2022-08-23T10:39:34.343Z,98820.10
2022-08-23T10:44:53.261Z,98818.66
2022-08-23T10:50:06.510Z,98825.32
2022-08-23T10:55:36.815Z,98826.89
2022-08-23T11:00:41.745Z,98832.63
2022-08-23T11:06:25.996Z,98832.93
2022-08-23T11:11:39.849Z,98832.27
2022-08-23T11:16:46.644Z,98833.13
2022-08-23T11:21:50.316Z,98831.59
2022-08-23T11:26:55.083Z,98838.09
2022-08-23T11:32:17.662Z,98835.59
2022-08-23T11:37:21.028Z,98837.05
2022-08-23T11:42:37.397Z,98833.55
2022-08-23T11:47:44.546Z,98828.05
2022-08-23T11:53:15.476Z,98827.70
2022-08-23T11:58:23.486Z,98829.63
2022-08-23T12:03:36.256Z,98831.77
2022-08-23T12:08:54.788Z,98833.94
2022-08-23T12:14:01.772Z,98838.45
2022-08-23T12:19:09.689Z,98843.55
2022-08-23T12:24:43.025Z,98845.79
2022-08-23T12:29:49.465Z,98844.77
2022-08-23T12:35:10.663Z,98836.17
2022-08-23T12:40:21.645Z,98827.67
2022-08-23T12:45:25.203Z,98827.02
2022-08-23T12:50:44.732Z,98825.70
2022-08-23T12:55:51.118Z,98829.30
2022-08-23T13:00:57.481Z,98831.77
2022-08-23T13:06:08.638Z,98834.15
2022-08-23T13:11:18.253Z,98836.30
2022-08-23T13:16:29.053Z,98830.46
2022-08-23T13:21:39.528Z,98827.41
2022-08-23T13:26:44.148Z,98823.64
2022-08-23T13:31:53.195Z,98821.46
2022-08-23T13:37:02.715Z,98818.22
2022-08-23T13:42:05.801Z,98812.94
2022-08-23T13:47:22.447Z,98809.86
2022-08-23T13:57:48.596Z,98808.06
2022-08-23T14:02:52.230Z,98804.89
2022-08-23T14:07:56.617Z,98806.88
2022-08-23T14:13:02.488Z,98802.43
2022-08-23T14:18:06.117Z,98803.92
2022-08-23T14:23:11.926Z,98801.52
2022-08-23T14:28:16.259Z,98797.07
2022-08-23T14:33:21.709Z,98795.02
2022-08-23T14:38:24.739Z,98796.55
2022-08-23T14:43:28.325Z,98795.34
2022-08-23T14:48:31.527Z,98798.23
2022-08-23T14:53:37.207Z,98800.33
2022-08-23T14:58:40.562Z,98809.86
2022-08-23T15:03:43.881Z,98817.35
2022-08-23T15:08:47.797Z,98816.68
2022-08-23T15:13:55.441Z,98826.56
2022-08-23T15:19:00.246Z,98833.02
2022-08-23T15:24:04.222Z,98837.52
2022-08-23T15:29:07.263Z,98839.91
2022-08-23T15:34:12.698Z,98836.84
2022-08-23T15:39:15.956Z,98838.68
2022-08-23T15:44:19.204Z,98848.05
2022-08-23T15:49:25.975Z,98850.99
2022-08-23T15:54:29.022Z,98850.98
2022-08-23T15:59:35.962Z,98851.77
2022-08-23T16:04:39.150Z,98855.52
2022-08-23T16:09:42.655Z,98853.04
2022-08-23T16:14:45.570Z,98859.17
2022-08-23T16:19:48.686Z,98864.41
2022-08-23T16:24:54.382Z,98868.80
2022-08-23T16:29:57.408Z,98871.86
2022-08-23T16:35:00.809Z,98872.52
2022-08-23T16:40:09.191Z,98875.02
2022-08-23T16:45:12.889Z,98887.00
2022-08-23T16:50:15.864Z,98894.65
2022-08-23T16:55:19.210Z,98896.19
2022-08-23T17:00:22.841Z,98894.07
2022-08-23T17:05:26.008Z,98901.12
2022-08-23T17:10:29.650Z,98904.95
2022-08-23T17:15:35.726Z,98901.28
2022-08-23T17:20:39.432Z,98890.20
2022-08-23T17:25:47.817Z,98887.58
2022-08-23T17:30:50.965Z,98893.02
2022-08-23T17:35:54.921Z,98902.13
2022-08-23T17:40:58.951Z,98908.75
2022-08-23T17:46:02.071Z,98921.23
2022-08-23T17:51:05.352Z,98927.10
2022-08-23T17:56:10.362Z,98931.29
2022-08-23T18:01:15.750Z,98936.51
2022-08-23T18:06:19.559Z,98949.88
2022-08-23T18:11:23.039Z,98974.52
2022-08-23T18:16:34.402Z,98978.86
2022-08-23T18:21:39.834Z,98986.80
2022-08-23T18:27:03.009Z,98985.86
2022-08-23T18:32:08.610Z,98983.29
2022-08-23T18:37:17.180Z,98991.80
2022-08-23T18:42:20.279Z,99002.39
2022-08-23T18:47:23.584Z,99006.65
2022-08-23T18:52:29.186Z,99014.48
2022-08-23T18:57:34.267Z,99007.06
2022-08-23T19:02:37.268Z,99011.92
2022-08-23T19:07:40.279Z,99013.52
2022-08-23T19:12:52.803Z,99001.43
2022-08-23T19:18:06.785Z,99011.54
2022-08-23T19:23:09.656Z,99013.39
2022-08-23T19:28:13.408Z,99026.27
2022-08-23T19:33:16.877Z,99032.84
2022-08-23T19:38:19.908Z,99037.88
2022-08-23T19:43:23.297Z,99032.87
2022-08-23T19:48:26.352Z,99033.05
2022-08-23T19:53:29.263Z,99036.11
2022-08-23T19:58:32.513Z,99044.86
2022-08-23T20:03:35.587Z,99054.98
2022-08-23T20:08:39.303Z,99062.09
2022-08-23T20:13:42.905Z,99064.41
2022-08-23T20:18:46.370Z,99066.11
2022-08-23T20:24:01.565Z,99064.06
2022-08-23T20:29:05.677Z,99063.17
2022-08-23T20:34:09.355Z,99069.95
2022-08-23T20:39:13.027Z,99071.25
2022-08-23T20:44:16.238Z,99078.43
2022-08-23T20:49:19.455Z,99080.52
2022-08-23T20:54:22.479Z,99085.97
2022-08-23T20:59:26.017Z,99074.86
2022-08-23T21:04:30.154Z,99071.74
2022-08-23T21:09:33.387Z,99066.50
2022-08-23T21:14:36.483Z,99072.10
2022-08-23T21:19:39.759Z,99073.14
2022-08-23T21:24:42.752Z,99077.18
2022-08-23T21:29:45.779Z,99082.48
2022-08-23T21:34:48.744Z,99090.11
2022-08-23T21:39:52.377Z,99099.58
2022-08-23T21:44:55.316Z,99105.96
2022-08-23T21:49:59.150Z,99115.10
2022-08-23T21:55:02.461Z,99110.08
2022-08-23T22:00:17.256Z,99114.42
2022-08-23T22:05:20.210Z,99117.22
2022-08-23T22:10:23.879Z,99109.45
2022-08-23T22:15:26.751Z,99096.08
2022-08-23T22:20:31.731Z,99076.73
2022-08-23T22:25:34.705Z,99069.30
2022-08-23T22:30:37.620Z,99069.48
2022-08-23T22:35:41.009Z,99072.55
2022-08-23T22:40:51.750Z,99070.52
2022-08-23T22:45:57.446Z,99066.95
2022-08-23T22:51:16.644Z,99071.12
2022-08-23T22:56:23.649Z,99069.95
2022-08-23T23:01:33.019Z,99066.84
2022-08-23T23:06:38.028Z,99064.73
2022-08-23T23:11:42.598Z,99062.00
2022-08-23T23:16:48.373Z,99073.33
2022-08-23T23:21:55.321Z,99072.84
2022-08-23T23:26:59.562Z,99066.27
2022-08-23T23:32:02.715Z,99069.20
2022-08-23T23:37:05.833Z,99072.08
2022-08-23T23:42:08.748Z,99081.69
2022-08-23T23:47:11.849Z,99081.14
2022-08-23T23:52:14.693Z,99078.13
2022-08-23T23:57:17.724Z,99076.05
